WZZ872 LHBP-LIEA
Flight info
| Callsign | WZZ872 |
|---|---|
| Flight time | N/A |
| Altitude | 36000 |
| Route | DUZLA DCT VEBAL DCT NIVES DCT IBENI DCT MAMAR DCT BATOX DCT ROMPO L5 MINKA |
| Aircraft | A321/M-SDE1E2E3FGIJ1J4RWXY/LB1 |
Departure
| Time | 2026-05-04 08:08 |
|---|---|
| Airport | Budapest Liszt Ferenc International Airport (LHBP) |
Arrival
| Time | N/A |
|---|---|
| Airport | Alghero-Fertilia Airport (LIEA) |
| Time | Latitude | Longitude | Altitude | Speed | Heading |
|---|---|---|---|---|---|
| 2026-05-04 07:38 | 47.43398 | 19.26661 | 458 ft | 0 kts | 222° |
| 2026-05-04 07:43 | 47.43397 | 19.26661 | 457 ft | 0 kts | 221° |
| 2026-05-04 08:00 | 47.43402 | 19.26667 | 458 ft | 4 kts | 220° |
| 2026-05-04 08:00 | 47.43420 | 19.26690 | 455 ft | 3 kts | 223° |
| 2026-05-04 08:02 | 47.43399 | 19.26780 | 456 ft | 0 kts | 312° |
| 2026-05-04 08:03 | 47.43415 | 19.26754 | 457 ft | 9 kts | 312° |
| 2026-05-04 08:03 | 47.43464 | 19.26676 | 458 ft | 11 kts | 312° |
| 2026-05-04 08:03 | 47.43520 | 19.26585 | 458 ft | 13 kts | 312° |
| 2026-05-04 08:04 | 47.43583 | 19.26483 | 458 ft | 14 kts | 312° |
| 2026-05-04 08:04 | 47.43653 | 19.26370 | 458 ft | 15 kts | 313° |
| 2026-05-04 08:04 | 47.43731 | 19.26391 | 457 ft | 14 kts | 42° |
| 2026-05-04 08:04 | 47.43807 | 19.26387 | 458 ft | 13 kts | 311° |
| 2026-05-04 08:05 | 47.43872 | 19.26282 | 458 ft | 15 kts | 312° |
| 2026-05-04 08:05 | 47.43954 | 19.26209 | 458 ft | 14 kts | 24° |
| 2026-05-04 08:05 | 47.44026 | 19.26303 | 461 ft | 13 kts | 45° |
| 2026-05-04 08:05 | 47.44068 | 19.26426 | 470 ft | 14 kts | 79° |
| 2026-05-04 08:06 | 47.44040 | 19.26570 | 468 ft | 18 kts | 131° |
| 2026-05-04 08:06 | 47.43824 | 19.26916 | 473 ft | 82 kts | 134° |
| 2026-05-04 08:06 | 47.43284 | 19.27791 | 464 ft | 147 kts | 132° |
| 2026-05-04 08:06 | 47.42530 | 19.29008 | 911 ft | 159 kts | 136° |
| 2026-05-04 08:08 | 47.38146 | 19.39716 | 4646 ft | 223 kts | 143° |
| 2026-05-04 08:08 | 47.36664 | 19.40519 | 4913 ft | 241 kts | 183° |
| 2026-05-04 08:10 | 47.26717 | 19.24274 | 10334 ft | 307 kts | 225° |
| 2026-05-04 08:11 | 47.25205 | 19.21892 | 10550 ft | 330 kts | 226° |
| 2026-05-04 08:11 | 47.21963 | 19.16761 | 11603 ft | 349 kts | 225° |
| 2026-05-04 08:11 | 47.20302 | 19.14130 | 12316 ft | 353 kts | 226° |
| 2026-05-04 08:12 | 47.19195 | 19.12380 | 12796 ft | 355 kts | 226° |